Página principal
METAR-TAF:

METAR-TAF

Aeroportos :

Chevak, Alasca, Estados Unidos

latitude: 61-32-27N, longitude: 165-36-03W, altura: 23 m

Observação actual do tempo

O boletim foi feito há 13 minutos, às 20:28 UTC
Vento 9 kt de su-sudeste
Temperatura 11°C
Humidade 94%
Pressão 1013 hPa
Visibilidade: 12.9 km
Poucas nuvensa uma altura de 700 ft
Nuvens fragmentadasa uma altura de 1700 ft
Encobertoa uma altura de 3200 ft

METAR: PAVA 192028Z AUTO 16009KT 8SM FEW007 BKN017 OVC032 11/10 A2992 RMK AO2 PNO $

Hora: 12:41 (20:41 UTC)


TAF: em falta

Observações e previsões do tempo de mais de 4000 aeroportos (mensagens METAR e TAF).

As estações disponíveis são os pontos amarelos e vermelhos sobre o mapa.

Mova o rato sobre o mapa para ver o nome da estação.

Depois clique no ponto para visualizar as observações e previsões meteorológicas.

Para alterar o mapa : clique nos botões verdes com uma cruz preta para aumentar o zoom; no botão verde com uma pitada de zoom; ou nas setas verdes para mapas adjacentes.


METAR-TAF: